Time;durP1;ratioP1;P1;durP2;ratioP2;P2;SDS_P1;SDS_P2;PMS_P1;PMS_P2;Temp;Humidity;BMP_temperature;BMP_pressure;BME280_temperature;BME280_humidity;BME280_pressure;Samples;Min_cycle;Max_cycle;Signal;HPM_P1;HPM_P2
2024/02/02 00:02:16;;;;;;;;;;;;;;;;;;2206832;66;1322;-22
2024/02/02 00:04:46;;;;;;;;;;;;;;;;;;2206762;66;1688;-22
2024/02/02 00:07:17;;;;;;;;;;;;;;;;;;2207663;66;1244;-22
2024/02/02 00:09:47;;;;;;;;;;;;;;;;;;2203254;66;1579;-22
2024/02/02 00:12:18;;;;;;;;;;;;;;;;;;2207691;66;1275;-23
2024/02/02 00:14:48;;;;;;;;;;;;;;;;;;2206417;59;1658;-23
2024/02/02 00:17:19;;;;;;;;;;;;;;;;;;2206977;66;1314;-23
2024/02/02 00:19:49;;;;;;;;;;;;;;;;;;2206939;66;1921;-23
2024/02/02 00:22:20;;;;;;;;;;;;;;;;;;2207373;59;1581;-23
2024/02/02 00:24:51;;;;;;;;;;;;;;;;;;2207171;59;1998;-23
2024/02/02 00:27:21;;;;;;;;;;;;;;;;;;2207932;66;1187;-23
2024/02/02 00:29:52;;;;;;;;;;;;;;;;;;2207438;66;1642;-23
2024/02/02 00:32:22;;;;;;;;;;;;;;;;;;2200605;67;1497;-23
2024/02/02 00:34:53;;;;;;;;;;;;;;;;;;2206842;59;1816;-23
2024/02/02 00:37:23;;;;;;;;;;;;;;;;;;2207254;59;1779;-23
2024/02/02 00:39:53;;;;;;;;;;;;;;;;;;2204561;67;2109;-23
2024/02/02 00:42:24;;;;;;;;;;;;;;;;;;2206972;67;1196;-23
2024/02/02 00:44:54;;;;;;;;;;;;;;;;;;2203633;67;1773;-23
2024/02/02 00:47:25;;;;;;;;;;;;;;;;;;2204550;67;1710;-22
2024/02/02 00:49:55;;;;;;;;;;;;;;;;;;2203787;66;1460;-23
2024/02/02 00:52:26;;;;;;;;;;;;;;;;;;2208207;59;1851;-23
2024/02/02 00:54:56;;;;;;;;;;;;;;;;;;2203638;67;1688;-23
2024/02/02 00:57:28;;;;;;;;;;;;;;;;;;2208284;66;1543;-23
2024/02/02 00:59:58;;;;;;;;;;;;;;;;;;2207141;59;1980;-23
2024/02/02 01:02:29;;;;;;;;;;;;;;;;;;2206863;66;1571;-23
2024/02/02 01:04:59;;;;;;;;;;;;;;;;;;2206155;66;1767;-23
2024/02/02 01:07:29;;;;;;;;;;;;;;;;;;2207819;66;1432;-23
2024/02/02 01:09:59;;;;;;;;;;;;;;;;;;2205957;66;1627;-23
2024/02/02 01:12:30;;;;;;;;;;;;;;;;;;2206911;67;1439;-23
2024/02/02 01:15:01;;;;;;;;;;;;;;;;;;2206960;59;1648;-23
2024/02/02 01:17:31;;;;;;;;;;;;;;;;;;2206984;66;1660;-23
2024/02/02 01:20:03;;;;;;;;;;;;;;;;;;2203808;59;1937;-23
2024/02/02 01:22:33;;;;;;;;;;;;;;;;;;2203799;59;1738;-23
2024/02/02 01:25:04;;;;;;;;;;;;;;;;;;2206016;59;1638;-23
2024/02/02 01:27:34;;;;;;;;;;;;;;;;;;2207737;66;1151;-23
2024/02/02 01:30:05;;;;;;;;;;;;;;;;;;2207137;59;1629;-23
2024/02/02 01:32:36;;;;;;;;;;;;;;;;;;2207872;59;1672;-22
2024/02/02 01:35:06;;;;;;;;;;;;;;;;;;2206828;59;1877;-23
2024/02/02 01:37:36;;;;;;;;;;;;;;;;;;2208131;59;1546;-23
2024/02/02 01:40:07;;;;;;;;;;;;;;;;;;2206321;66;1932;-23
2024/02/02 01:42:38;;;;;;;;;;;;;;;;;;2207808;66;1145;-23
2024/02/02 01:45:08;;;;;;;;;;;;;;;;;;2202651;66;1355;-23
2024/02/02 01:47:39;;;;;;;;;;;;;;;;;;2208049;59;1458;-23
2024/02/02 01:50:09;;;;;;;;;;;;;;;;;;2206290;59;1793;-23
2024/02/02 01:52:39;;;;;;;;;;;;;;;;;;2207904;59;1969;-23
2024/02/02 01:55:10;;;;;;;;;;;;;;;;;;2203786;66;1467;-23
2024/02/02 01:57:40;;;;;;;;;;;;;;;;;;2208229;66;1634;-23
2024/02/02 02:00:11;;;;;;;;;;;;;;;;;;2203500;59;2150;-22
2024/02/02 02:02:41;;;;;;;;;;;;;;;;;;2207514;66;2108;-23
2024/02/02 02:05:12;;;;;;;;;;;;;;;;;;2201217;66;1477;-23
2024/02/02 02:07:44;;;;;;;;;;;;;;;;;;2203712;67;1567;-23
2024/02/02 02:10:14;;;;;;;;;;;;;;;;;;2203976;67;1490;-23
2024/02/02 02:12:45;;;;;;;;;;;;;;;;;;2206237;66;1999;-23
2024/02/02 02:15:15;;;;;;;;;;;;;;;;;;2207924;59;1475;-23
2024/02/02 02:17:48;;;;;;;;;;;;;;;;;;2206894;66;1577;-22
2024/02/02 02:20:22;;;;;;;;;;;;;;;;;;2208204;59;1935;-23
2024/02/02 02:22:53;;;;;;;;;;;;;;;;;;2207031;59;1873;-23
2024/02/02 02:25:23;;;;;;;;;;;;;;;;;;2207514;59;1335;-23
2024/02/02 02:27:53;;;;;;;;;;;;;;;;;;2207234;66;1265;-23
2024/02/02 02:30:24;;;;;;;;;;;;;;;;;;2208104;66;1365;-23
2024/02/02 02:32:54;;;;;;;;;;;;;;;;;;2203344;59;1500;-23
2024/02/02 02:35:24;;;;;;;;;;;;;;;;;;2207478;66;1295;-23
2024/02/02 02:37:54;;;;;;;;;;;;;;;;;;2206952;59;1500;-23
2024/02/02 02:40:24;;;;;;;;;;;;;;;;;;2208564;66;1944;-23
2024/02/02 02:42:55;;;;;;;;;;;;;;;;;;2203304;66;2320;-23
2024/02/02 02:45:25;;;;;;;;;;;;;;;;;;2204367;67;1233;-23
2024/02/02 02:47:55;;;;;;;;;;;;;;;;;;2206956;66;1340;-23
2024/02/02 02:50:26;;;;;;;;;;;;;;;;;;2204281;59;2074;-23
2024/02/02 02:52:56;;;;;;;;;;;;;;;;;;2207088;59;1504;-22
2024/02/02 02:55:26;;;;;;;;;;;;;;;;;;2207800;59;1599;-22
2024/02/02 02:57:56;;;;;;;;;;;;;;;;;;2203727;59;2176;-23
2024/02/02 03:00:28;;;;;;;;;;;;;;;;;;2208360;66;1932;-23
2024/02/02 03:02:58;;;;;;;;;;;;;;;;;;2206173;66;1675;-22
2024/02/02 03:05:29;;;;;;;;;;;;;;;;;;2207580;66;1525;-22
2024/02/02 03:08:00;;;;;;;;;;;;;;;;;;2203646;67;1407;-22
2024/02/02 03:10:31;;;;;;;;;;;;;;;;;;2204890;67;1578;-22
2024/02/02 03:13:01;;;;;;;;;;;;;;;;;;2206425;59;1191;-22
2024/02/02 03:15:33;;;;;;;;;;;;;;;;;;2207853;59;1207;-22
2024/02/02 03:18:04;;;;;;;;;;;;;;;;;;2206901;66;1150;-22
2024/02/02 03:20:34;;;;;;;;;;;;;;;;;;2207767;59;1937;-23
2024/02/02 03:23:04;;;;;;;;;;;;;;;;;;2203476;59;1742;-22
2024/02/02 03:25:34;;;;;;;;;;;;;;;;;;2204069;59;1322;-22
2024/02/02 03:28:05;;;;;;;;;;;;;;;;;;2206820;66;1309;-23
2024/02/02 03:30:35;;;;;;;;;;;;;;;;;;2203720;67;1586;-23
2024/02/02 03:33:05;;;;;;;;;;;;;;;;;;2206376;59;2347;-22
2024/02/02 03:35:36;;;;;;;;;;;;;;;;;;2205588;67;1832;-22
2024/02/02 03:38:06;;;;;;;;;;;;;;;;;;2203893;59;1391;-22
2024/02/02 03:40:36;;;;;;;;;;;;;;;;;;2207654;66;1988;-22
2024/02/02 03:43:07;;;;;;;;;;;;;;;;;;2206823;66;1351;-22
2024/02/02 03:45:37;;;;;;;;;;;;;;;;;;2204565;59;1653;-22
2024/02/02 03:48:07;;;;;;;;;;;;;;;;;;2206966;66;1415;-22
2024/02/02 03:50:37;;;;;;;;;;;;;;;;;;2207640;59;1632;-22
2024/02/02 03:53:08;;;;;;;;;;;;;;;;;;2207441;59;1429;-23
2024/02/02 03:55:38;;;;;;;;;;;;;;;;;;2207893;59;1367;-22
2024/02/02 03:58:08;;;;;;;;;;;;;;;;;;2205662;59;1491;-22
2024/02/02 04:00:38;;;;;;;;;;;;;;;;;;2207705;66;1943;-22
2024/02/02 04:03:10;;;;;;;;;;;;;;;;;;2206821;59;1168;-22
2024/02/02 04:05:41;;;;;;;;;;;;;;;;;;2207359;66;1465;-22
2024/02/02 04:08:11;;;;;;;;;;;;;;;;;;2203088;67;1735;-22
2024/02/02 04:10:41;;;;;;;;;;;;;;;;;;2207946;59;1712;-22
2024/02/02 04:13:11;;;;;;;;;;;;;;;;;;2206393;66;1183;-21
2024/02/02 04:15:43;;;;;;;;;;;;;;;;;;2207463;59;1653;-22
2024/02/02 04:18:14;;;;;;;;;;;;;;;;;;2206654;66;1236;-22
2024/02/02 04:20:44;;;;;;;;;;;;;;;;;;2208318;59;1951;-21
2024/02/02 04:23:16;;;;;;;;;;;;;;;;;;2203653;66;1381;-21
2024/02/02 04:25:46;;;;;;;;;;;;;;;;;;2203882;67;1284;-22
2024/02/02 04:28:16;;;;;;;;;;;;;;;;;;2206703;66;1649;-22
2024/02/02 04:30:47;;;;;;;;;;;;;;;;;;2201112;67;1273;-22
2024/02/02 04:33:17;;;;;;;;;;;;;;;;;;2204019;59;1604;-22
2024/02/02 04:35:47;;;;;;;;;;;;;;;;;;2204190;67;1464;-22
2024/02/02 04:38:17;;;;;;;;;;;;;;;;;;2207040;59;1422;-22
2024/02/02 04:40:48;;;;;;;;;;;;;;;;;;2207743;66;1933;-22
2024/02/02 04:43:18;;;;;;;;;;;;;;;;;;2203319;59;1422;-22
2024/02/02 04:45:48;;;;;;;;;;;;;;;;;;2207057;66;1626;-22
2024/02/02 04:48:18;;;;;;;;;;;;;;;;;;2203646;66;1754;-22
2024/02/02 04:50:49;;;;;;;;;;;;;;;;;;2207651;59;1471;-22
2024/02/02 04:53:19;;;;;;;;;;;;;;;;;;2205693;59;1856;-22
2024/02/02 04:55:49;;;;;;;;;;;;;;;;;;2206947;59;1273;-22
2024/02/02 04:58:19;;;;;;;;;;;;;;;;;;2206708;59;1713;-22
2024/02/02 05:00:50;;;;;;;;;;;;;;;;;;2204400;67;1953;-22
2024/02/02 05:03:20;;;;;;;;;;;;;;;;;;2205621;59;1275;-22
2024/02/02 05:05:50;;;;;;;;;;;;;;;;;;2208247;66;1325;-22
2024/02/02 05:08:20;;;;;;;;;;;;;;;;;;2207086;59;1535;-22
2024/02/02 05:10:50;;;;;;;;;;;;;;;;;;2204050;59;1348;-22
2024/02/02 05:13:21;;;;;;;;;;;;;;;;;;2206412;66;1379;-22
2024/02/02 05:15:51;;;;;;;;;;;;;;;;;;2207014;59;1247;-22
2024/02/02 05:18:21;;;;;;;;;;;;;;;;;;2200151;67;1298;-22
2024/02/02 05:20:52;;;;;;;;;;;;;;;;;;2201370;59;1995;-22
2024/02/02 05:23:24;;;;;;;;;;;;;;;;;;2203417;59;1453;-22
2024/02/02 05:25:54;;;;;;;;;;;;;;;;;;2207247;59;2146;-21
2024/02/02 05:28:24;;;;;;;;;;;;;;;;;;2203450;59;2099;-21
2024/02/02 05:30:54;;;;;;;;;;;;;;;;;;2207109;66;1972;-22
2024/02/02 05:33:25;;;;;;;;;;;;;;;;;;2206444;59;1601;-21
2024/02/02 05:35:55;;;;;;;;;;;;;;;;;;2207886;67;1358;-22
2024/02/02 05:38:25;;;;;;;;;;;;;;;;;;2204032;59;1392;-21
2024/02/02 05:40:56;;;;;;;;;;;;;;;;;;2207352;59;1933;-21
2024/02/02 05:43:26;;;;;;;;;;;;;;;;;;2203835;59;1543;-22
2024/02/02 05:45:56;;;;;;;;;;;;;;;;;;2202694;67;1885;-21
2024/02/02 05:48:26;;;;;;;;;;;;;;;;;;2207287;66;1213;-21
2024/02/02 05:50:58;;;;;;;;;;;;;;;;;;2202653;59;1567;-21
2024/02/02 05:53:28;;;;;;;;;;;;;;;;;;2207480;59;1530;-21
2024/02/02 05:55:59;;;;;;;;;;;;;;;;;;2206809;66;1358;-21
2024/02/02 05:58:29;;;;;;;;;;;;;;;;;;2207515;59;1641;-22
2024/02/02 06:00:59;;;;;;;;;;;;;;;;;;2207051;66;1935;-22
2024/02/02 06:03:29;;;;;;;;;;;;;;;;;;2206751;66;1165;-22
2024/02/02 06:06:00;;;;;;;;;;;;;;;;;;2206772;66;1634;-22
2024/02/02 06:08:30;;;;;;;;;;;;;;;;;;2207150;66;1700;-22
2024/02/02 06:11:03;;;;;;;;;;;;;;;;;;2203091;66;1266;-22
2024/02/02 06:13:33;;;;;;;;;;;;;;;;;;2206718;67;1749;-22
2024/02/02 06:16:03;;;;;;;;;;;;;;;;;;2203114;59;1438;-22
2024/02/02 06:18:35;;;;;;;;;;;;;;;;;;2203203;67;1453;-22
2024/02/02 06:21:05;;;;;;;;;;;;;;;;;;2206390;66;1940;-21
2024/02/02 06:23:36;;;;;;;;;;;;;;;;;;2206960;59;1495;-21
2024/02/02 06:26:07;;;;;;;;;;;;;;;;;;2206672;59;1393;-21
2024/02/02 06:28:37;;;;;;;;;;;;;;;;;;2204719;67;1728;-22
2024/02/02 06:31:07;;;;;;;;;;;;;;;;;;2206788;67;1436;-22
2024/02/02 06:33:37;;;;;;;;;;;;;;;;;;2203584;59;2253;-21
2024/02/02 06:36:08;;;;;;;;;;;;;;;;;;2207241;59;1648;-21
2024/02/02 06:38:38;;;;;;;;;;;;;;;;;;2208976;59;1245;-21
2024/02/02 06:41:10;;;;;;;;;;;;;;;;;;2203909;67;1992;-22
2024/02/02 06:43:40;;;;;;;;;;;;;;;;;;2204592;67;1791;-21
2024/02/02 06:46:11;;;;;;;;;;;;;;;;;;2207392;66;1527;-22
2024/02/02 06:48:43;;;;;;;;;;;;;;;;;;2205026;59;2707;-22
2024/02/02 06:51:13;;;;;;;;;;;;;;;;;;2207463;58;1473;-22
2024/02/02 06:53:44;;;;;;;;;;;;;;;;;;2204860;59;1472;-22
2024/02/02 06:56:44;;;;;;;;;;;;;;;;;;2207993;58;1271;-22
2024/02/02 06:59:15;;;;;;;;;;;;;;;;;;2205466;58;2328;-21
2024/02/02 07:01:45;;;;;;;;;;;;;;;;;;2204431;59;1507;-21
2024/02/02 07:04:16;;;;;;;;;;;;;;;;;;2206591;59;1355;-21
2024/02/02 07:06:47;;;;;;;;;;;;;;;;;;2207723;58;2292;-21
2024/02/02 07:09:17;;;;;;;;;;;;;;;;;;2206830;66;2314;-21
2024/02/02 07:11:58;;;;;;;;;;;;;;;;;;2207906;59;2150;-21
2024/02/02 07:14:43;;;;;;;;;;;;;;;;;;2206549;59;2078;-21
2024/02/02 07:17:14;;;;;;;;;;;;;;;;;;2194379;58;4881;-21
2024/02/02 07:19:44;;;;;;;;;;;;;;;;;;2192061;59;4831;-21
2024/02/02 07:22:27;;;;;;;;;;;;;;;;;;2190076;59;4769;-22
2024/02/02 07:24:57;;;;;;;;;;;;;;;;;;2191694;59;4755;-21
2024/02/02 07:27:43;;;;;;;;;;;;;;;;;;2194633;59;3920;-21
2024/02/02 07:30:27;;;;;;;;;;;;;;;;;;2195017;59;2354;-22
2024/02/02 07:32:58;;;;;;;;;;;;;;;;;;2196213;59;2522;-21
2024/02/02 07:35:33;;;;;;;;;;;;;;;;;;2194568;59;2918;-22
2024/02/02 07:38:04;;;;;;;;;;;;;;;;;;2196302;59;1816;-21
2024/02/02 07:40:53;;;;;;;;;;;;;;;;;;2196611;59;2188;-21
2024/02/02 07:43:24;;;;;;;;;;;;;;;;;;2194539;59;2134;-21
2024/02/02 07:45:54;;;;;;;;;;;;;;;;;;2196401;59;2037;-21
2024/02/02 07:48:24;;;;;;;;;;;;;;;;;;2201019;59;1774;-22
2024/02/02 07:50:55;;;;;;;;;;;;;;;;;;2197011;59;2321;-21
2024/02/02 07:53:25;;;;;;;;;;;;;;;;;;2195532;59;1990;-21
2024/02/02 07:55:55;;;;;;;;;;;;;;;;;;2196500;59;2279;-22
2024/02/02 07:58:25;;;;;;;;;;;;;;;;;;2196023;59;2107;-21
2024/02/02 08:00:57;;;;;;;;;;;;;;;;;;2195664;67;1931;-21
2024/02/02 08:03:27;;;;;;;;;;;;;;;;;;2194809;59;2208;-22
2024/02/02 08:05:57;;;;;;;;;;;;;;;;;;2197154;67;1481;-22
2024/02/02 08:08:30;;;;;;;;;;;;;;;;;;2195782;59;1620;-22
2024/02/02 08:11:00;;;;;;;;;;;;;;;;;;2201844;59;2079;-21
2024/02/02 08:13:31;;;;;;;;;;;;;;;;;;2194940;67;1451;-21
2024/02/02 08:16:01;;;;;;;;;;;;;;;;;;2196426;59;1561;-21
2024/02/02 08:18:32;;;;;;;;;;;;;;;;;;2195794;59;1685;-22
2024/02/02 08:21:02;;;;;;;;;;;;;;;;;;2195461;59;2092;-21
2024/02/02 08:23:33;;;;;;;;;;;;;;;;;;2195459;59;1534;-21
2024/02/02 08:26:03;;;;;;;;;;;;;;;;;;2196782;59;1438;-21
2024/02/02 08:28:34;;;;;;;;;;;;;;;;;;2192441;67;1948;-21
2024/02/02 08:31:04;;;;;;;;;;;;;;;;;;2199227;59;1194;-21
2024/02/02 08:33:36;;;;;;;;;;;;;;;;;;2195300;59;1432;-21
2024/02/02 08:36:08;;;;;;;;;;;;;;;;;;2195363;59;2185;-21
2024/02/02 08:38:40;;;;;;;;;;;;;;;;;;2196398;59;1504;-21
2024/02/02 08:41:10;;;;;;;;;;;;;;;;;;2195236;67;1931;-22
2024/02/02 08:43:42;;;;;;;;;;;;;;;;;;2196558;67;1539;-22
2024/02/02 08:46:12;;;;;;;;;;;;;;;;;;2195805;59;1638;-22
2024/02/02 08:48:45;;;;;;;;;;;;;;;;;;2195867;67;1539;-22
2024/02/02 08:51:21;;;;;;;;;;;;;;;;;;2195466;59;1652;-22
2024/02/02 08:53:57;;;;;;;;;;;;;;;;;;2196043;67;1198;-22
2024/02/02 08:56:27;;;;;;;;;;;;;;;;;;2195968;67;1264;-22
2024/02/02 08:58:58;;;;;;;;;;;;;;;;;;2194977;59;2199;-22
2024/02/02 09:01:44;;;;;;;;;;;;;;;;;;2195105;67;1927;-22
2024/02/02 09:04:33;;;;;;;;;;;;;;;;;;2194653;67;1969;-22
2024/02/02 09:07:03;;;;;;;;;;;;;;;;;;2199017;67;1815;-22
2024/02/02 09:09:34;;;;;;;;;;;;;;;;;;2196088;67;1672;-22
2024/02/02 09:12:04;;;;;;;;;;;;;;;;;;2196702;67;1342;-22
2024/02/02 09:14:34;;;;;;;;;;;;;;;;;;2194869;67;1371;-22
2024/02/02 09:17:06;;;;;;;;;;;;;;;;;;2196615;67;1643;-22
2024/02/02 09:19:45;;;;;;;;;;;;;;;;;;2195370;59;1936;-22
2024/02/02 09:22:17;;;;;;;;;;;;;;;;;;2195027;59;2033;-22
2024/02/02 09:24:53;;;;;;;;;;;;;;;;;;2196313;59;1543;-22
2024/02/02 09:27:35;;;;;;;;;;;;;;;;;;2195170;67;1739;-21
2024/02/02 09:30:10;;;;;;;;;;;;;;;;;;2195176;59;2193;-21
2024/02/02 09:32:43;;;;;;;;;;;;;;;;;;2194516;60;1645;-21
2024/02/02 09:35:34;;;;;;;;;;;;;;;;;;2192965;59;2374;-22
2024/02/02 09:38:04;;;;;;;;;;;;;;;;;;2193145;59;2914;-21
2024/02/02 09:40:34;;;;;;;;;;;;;;;;;;2193036;60;1940;-21
2024/02/02 09:43:15;;;;;;;;;;;;;;;;;;2200648;59;2028;-21
2024/02/02 09:45:49;;;;;;;;;;;;;;;;;;2195689;59;1942;-21
2024/02/02 09:48:24;;;;;;;;;;;;;;;;;;2199949;67;1470;-21
2024/02/02 09:51:02;;;;;;;;;;;;;;;;;;2196422;59;2120;-21
2024/02/02 09:53:32;;;;;;;;;;;;;;;;;;2198978;59;2040;-21
2024/02/02 09:56:03;;;;;;;;;;;;;;;;;;2198542;59;2551;-21
2024/02/02 09:58:42;;;;;;;;;;;;;;;;;;2193506;59;1530;-22
2024/02/02 10:01:42;;;;;;;;;;;;;;;;;;2191182;59;1991;-21
2024/02/02 10:04:25;;;;;;;;;;;;;;;;;;2193096;59;1582;-21
2024/02/02 10:07:24;;;;;;;;;;;;;;;;;;2195833;59;1903;-21
2024/02/02 10:10:07;;;;;;;;;;;;;;;;;;2184646;59;1957;-22
2024/02/02 10:12:37;;;;;;;;;;;;;;;;;;2196332;59;1766;-21
2024/02/02 10:15:20;;;;;;;;;;;;;;;;;;2195817;59;1613;-21
2024/02/02 10:18:15;;;;;;;;;;;;;;;;;;2196550;59;1958;-22
2024/02/02 10:20:54;;;;;;;;;;;;;;;;;;2196586;59;1995;-21
2024/02/02 10:23:26;;;;;;;;;;;;;;;;;;2193855;59;1944;-21
2024/02/02 10:26:06;;;;;;;;;;;;;;;;;;2196128;59;1777;-21
2024/02/02 10:28:45;;;;;;;;;;;;;;;;;;2195556;67;1658;-21
2024/02/02 10:31:34;;;;;;;;;;;;;;;;;;2194841;67;1764;-22
2024/02/02 10:34:04;;;;;;;;;;;;;;;;;;2195845;59;2709;-21
2024/02/02 10:37:01;;;;;;;;;;;;;;;;;;2193755;59;2106;-21
2024/02/02 10:39:45;;;;;;;;;;;;;;;;;;2194364;59;1944;-21
2024/02/02 10:42:29;;;;;;;;;;;;;;;;;;2195211;67;1672;-21
2024/02/02 10:45:07;;;;;;;;;;;;;;;;;;2196291;67;1210;-21
2024/02/02 10:47:37;;;;;;;;;;;;;;;;;;2194568;67;1171;-21
2024/02/02 10:50:18;;;;;;;;;;;;;;;;;;2198646;59;1563;-22
2024/02/02 10:52:48;;;;;;;;;;;;;;;;;;2196744;59;1378;-21
2024/02/02 10:55:37;;;;;;;;;;;;;;;;;;2197980;67;1314;-21
2024/02/02 10:58:20;;;;;;;;;;;;;;;;;;2196793;59;2077;-21
2024/02/02 11:01:09;;;;;;;;;;;;;;;;;;2196307;67;1941;-21
2024/02/02 11:03:43;;;;;;;;;;;;;;;;;;2195861;67;1119;-22
2024/02/02 11:06:32;;;;;;;;;;;;;;;;;;2196842;59;1644;-22
2024/02/02 11:09:14;;;;;;;;;;;;;;;;;;2196800;67;1703;-21
2024/02/02 11:11:47;;;;;;;;;;;;;;;;;;2196314;59;1527;-21
2024/02/02 11:14:25;;;;;;;;;;;;;;;;;;2195900;59;1237;-21
2024/02/02 11:17:15;;;;;;;;;;;;;;;;;;2195882;59;1347;-22
2024/02/02 11:19:48;;;;;;;;;;;;;;;;;;2195757;59;1939;-22
2024/02/02 11:22:38;;;;;;;;;;;;;;;;;;2196620;59;1746;-21
2024/02/02 11:25:13;;;;;;;;;;;;;;;;;;2197144;59;1316;-21
2024/02/02 11:27:56;;;;;;;;;;;;;;;;;;2195940;59;2230;-22
2024/02/02 11:30:29;;;;;;;;;;;;;;;;;;2196326;59;1728;-22
2024/02/02 11:33:18;;;;;;;;;;;;;;;;;;2199440;59;1562;-22
2024/02/02 11:35:57;;;;;;;;;;;;;;;;;;2196492;59;1624;-22
2024/02/02 11:38:49;;;;;;;;;;;;;;;;;;2196458;59;1553;-22
2024/02/02 11:41:24;;;;;;;;;;;;;;;;;;2192518;67;2004;-22
2024/02/02 11:43:55;;;;;;;;;;;;;;;;;;2195676;67;1412;-22
2024/02/02 11:46:26;;;;;;;;;;;;;;;;;;2195659;67;1701;-22
2024/02/02 11:49:01;;;;;;;;;;;;;;;;;;2196922;59;1860;-22
2024/02/02 11:51:34;;;;;;;;;;;;;;;;;;2195914;59;1596;-22
2024/02/02 11:54:04;;;;;;;;;;;;;;;;;;2196104;67;1453;-22
2024/02/02 11:56:41;;;;;;;;;;;;;;;;;;2196002;67;1335;-22
2024/02/02 11:59:15;;;;;;;;;;;;;;;;;;2195789;59;1603;-22
2024/02/02 12:01:57;;;;;;;;;;;;;;;;;;2195919;67;2005;-22
2024/02/02 12:04:40;;;;;;;;;;;;;;;;;;2197653;67;1846;-22
2024/02/02 12:07:19;;;;;;;;;;;;;;;;;;2196731;67;1565;-22
2024/02/02 12:09:54;;;;;;;;;;;;;;;;;;2196731;67;1812;-22
2024/02/02 12:12:31;;;;;;;;;;;;;;;;;;2195468;67;1237;-22
2024/02/02 12:15:01;;;;;;;;;;;;;;;;;;2196712;59;1352;-22
2024/02/02 12:17:31;;;;;;;;;;;;;;;;;;2195310;67;1711;-22
2024/02/02 12:20:07;;;;;;;;;;;;;;;;;;2196037;59;1932;-22
2024/02/02 12:22:37;;;;;;;;;;;;;;;;;;2196272;59;1804;-22
2024/02/02 12:25:09;;;;;;;;;;;;;;;;;;2195700;67;1822;-22
2024/02/02 12:27:40;;;;;;;;;;;;;;;;;;2195575;67;1640;-22
2024/02/02 12:30:11;;;;;;;;;;;;;;;;;;2196267;67;1366;-22
2024/02/02 12:32:51;;;;;;;;;;;;;;;;;;2194990;67;1315;-22
2024/02/02 12:35:25;;;;;;;;;;;;;;;;;;2195878;67;1310;-22
2024/02/02 12:37:55;;;;;;;;;;;;;;;;;;2196569;59;1146;-22
2024/02/02 12:40:26;;;;;;;;;;;;;;;;;;2195199;59;2525;-22
2024/02/02 12:42:57;;;;;;;;;;;;;;;;;;2196087;67;1467;-22
2024/02/02 12:45:27;;;;;;;;;;;;;;;;;;2200171;67;1784;-22
2024/02/02 12:47:59;;;;;;;;;;;;;;;;;;2197058;67;1596;-22
2024/02/02 12:50:31;;;;;;;;;;;;;;;;;;2201509;59;2785;-22
2024/02/02 12:53:02;;;;;;;;;;;;;;;;;;2196522;59;1499;-22
2024/02/02 12:55:32;;;;;;;;;;;;;;;;;;2195065;67;1446;-22
2024/02/02 12:58:03;;;;;;;;;;;;;;;;;;2196692;59;1651;-22
2024/02/02 13:00:33;;;;;;;;;;;;;;;;;;2192252;67;1943;-22
2024/02/02 13:03:05;;;;;;;;;;;;;;;;;;2195555;67;1319;-22
2024/02/02 13:05:37;;;;;;;;;;;;;;;;;;2196069;67;1262;-22
2024/02/02 13:08:08;;;;;;;;;;;;;;;;;;2196184;67;1941;-22
2024/02/02 13:10:43;;;;;;;;;;;;;;;;;;2196522;67;1315;-21
2024/02/02 13:13:17;;;;;;;;;;;;;;;;;;2196610;67;1336;-22
2024/02/02 13:15:47;;;;;;;;;;;;;;;;;;2195380;59;2137;-22
2024/02/02 13:18:22;;;;;;;;;;;;;;;;;;2196104;67;1960;-22
2024/02/02 13:20:54;;;;;;;;;;;;;;;;;;2195440;59;1972;-22
2024/02/02 13:23:28;;;;;;;;;;;;;;;;;;2193755;59;1499;-22
2024/02/02 13:25:58;;;;;;;;;;;;;;;;;;2192488;59;1709;-22
2024/02/02 13:28:29;;;;;;;;;;;;;;;;;;2196087;67;1407;-22
2024/02/02 13:31:04;;;;;;;;;;;;;;;;;;2200548;67;1419;-21
2024/02/02 13:33:35;;;;;;;;;;;;;;;;;;2193538;59;2057;-22
2024/02/02 13:36:09;;;;;;;;;;;;;;;;;;2200123;59;2002;-22
2024/02/02 13:38:40;;;;;;;;;;;;;;;;;;2192385;59;3307;-21
2024/02/02 13:41:11;;;;;;;;;;;;;;;;;;2199895;67;2616;-22
2024/02/02 13:43:42;;;;;;;;;;;;;;;;;;2194469;67;1306;-22
2024/02/02 13:46:12;;;;;;;;;;;;;;;;;;2195880;59;1794;-22
2024/02/02 13:48:47;;;;;;;;;;;;;;;;;;2195993;59;2182;-22
2024/02/02 13:51:21;;;;;;;;;;;;;;;;;;2201885;59;1563;-21
2024/02/02 13:53:52;;;;;;;;;;;;;;;;;;2195375;59;1728;-21
2024/02/02 13:56:24;;;;;;;;;;;;;;;;;;2197456;67;1793;-22
2024/02/02 13:58:55;;;;;;;;;;;;;;;;;;2196954;59;1476;-22
2024/02/02 14:01:27;;;;;;;;;;;;;;;;;;2196055;59;2173;-21
2024/02/02 14:03:58;;;;;;;;;;;;;;;;;;2196898;59;1365;-22
2024/02/02 14:06:29;;;;;;;;;;;;;;;;;;2198491;67;1181;-21
2024/02/02 14:08:59;;;;;;;;;;;;;;;;;;2202699;59;1228;-22
2024/02/02 14:11:30;;;;;;;;;;;;;;;;;;2196102;67;1773;-21
2024/02/02 14:14:02;;;;;;;;;;;;;;;;;;2196392;59;1320;-21
2024/02/02 14:16:33;;;;;;;;;;;;;;;;;;2196862;67;1676;-22
2024/02/02 14:19:10;;;;;;;;;;;;;;;;;;2199436;59;2468;-22
2024/02/02 14:21:40;;;;;;;;;;;;;;;;;;2195013;59;2241;-21
2024/02/02 14:24:14;;;;;;;;;;;;;;;;;;2196348;59;1806;-21
2024/02/02 14:26:52;;;;;;;;;;;;;;;;;;2196157;59;1315;-21
2024/02/02 14:29:26;;;;;;;;;;;;;;;;;;2199403;67;1833;-21
2024/02/02 14:31:57;;;;;;;;;;;;;;;;;;2196581;67;1513;-21
2024/02/02 14:34:27;;;;;;;;;;;;;;;;;;2195660;59;1516;-21
2024/02/02 14:36:58;;;;;;;;;;;;;;;;;;2198819;59;1614;-21
2024/02/02 14:39:30;;;;;;;;;;;;;;;;;;2196289;59;1706;-21
2024/02/02 14:42:02;;;;;;;;;;;;;;;;;;2196011;59;1936;-21
2024/02/02 14:44:33;;;;;;;;;;;;;;;;;;2195769;67;1362;-21
2024/02/02 14:47:05;;;;;;;;;;;;;;;;;;2196422;67;1558;-21
2024/02/02 14:49:36;;;;;;;;;;;;;;;;;;2195854;67;2078;-21
2024/02/02 14:52:07;;;;;;;;;;;;;;;;;;2196866;59;2103;-21
2024/02/02 14:54:37;;;;;;;;;;;;;;;;;;2195369;67;1273;-21
2024/02/02 14:57:07;;;;;;;;;;;;;;;;;;2196917;59;1311;-21
2024/02/02 14:59:41;;;;;;;;;;;;;;;;;;2195977;59;1943;-21
2024/02/02 15:02:12;;;;;;;;;;;;;;;;;;2196588;67;1299;-21
2024/02/02 15:04:43;;;;;;;;;;;;;;;;;;2195255;59;2610;-21
2024/02/02 15:07:13;;;;;;;;;;;;;;;;;;2196931;67;1429;-21
2024/02/02 15:09:45;;;;;;;;;;;;;;;;;;2196475;67;2049;-21
2024/02/02 15:12:17;;;;;;;;;;;;;;;;;;2201288;67;2018;-21
2024/02/02 15:14:47;;;;;;;;;;;;;;;;;;2198153;67;1364;-21
2024/02/02 15:17:19;;;;;;;;;;;;;;;;;;2197266;67;1633;-21
2024/02/02 15:19:49;;;;;;;;;;;;;;;;;;2195155;59;1981;-21
2024/02/02 15:22:19;;;;;;;;;;;;;;;;;;2196338;59;2054;-21
2024/02/02 15:24:50;;;;;;;;;;;;;;;;;;2201360;59;1703;-21
2024/02/02 15:27:20;;;;;;;;;;;;;;;;;;2199634;67;1729;-21
2024/02/02 15:29:50;;;;;;;;;;;;;;;;;;2195600;59;1541;-21
2024/02/02 15:32:20;;;;;;;;;;;;;;;;;;2195363;59;1664;-21
2024/02/02 15:34:51;;;;;;;;;;;;;;;;;;2195743;59;2240;-21
2024/02/02 15:37:22;;;;;;;;;;;;;;;;;;2197165;59;1314;-21
2024/02/02 15:39:56;;;;;;;;;;;;;;;;;;2201543;67;2006;-21
2024/02/02 15:42:27;;;;;;;;;;;;;;;;;;2197119;67;1834;-21
2024/02/02 15:44:58;;;;;;;;;;;;;;;;;;2195900;67;1359;-21
2024/02/02 15:47:28;;;;;;;;;;;;;;;;;;2202249;67;1362;-21
2024/02/02 15:49:59;;;;;;;;;;;;;;;;;;2196419;59;1290;-21
2024/02/02 15:52:29;;;;;;;;;;;;;;;;;;2199476;59;1853;-21
2024/02/02 15:55:03;;;;;;;;;;;;;;;;;;2196348;59;1475;-21
2024/02/02 15:57:33;;;;;;;;;;;;;;;;;;2196197;67;1454;-21
2024/02/02 16:00:08;;;;;;;;;;;;;;;;;;2196843;59;2002;-21
2024/02/02 16:02:38;;;;;;;;;;;;;;;;;;2195462;59;1181;-21
2024/02/02 16:05:14;;;;;;;;;;;;;;;;;;2201980;59;1733;-21
2024/02/02 16:07:45;;;;;;;;;;;;;;;;;;2201382;67;1228;-21
2024/02/02 16:10:15;;;;;;;;;;;;;;;;;;2196627;59;2304;-21
2024/02/02 16:12:46;;;;;;;;;;;;;;;;;;2200006;67;1249;-21
2024/02/02 16:15:16;;;;;;;;;;;;;;;;;;2199239;59;1507;-21
2024/02/02 16:17:46;;;;;;;;;;;;;;;;;;2195722;67;1367;-21
2024/02/02 16:20:17;;;;;;;;;;;;;;;;;;2197003;59;1991;-21
2024/02/02 16:22:48;;;;;;;;;;;;;;;;;;2196008;59;1523;-21
2024/02/02 16:25:19;;;;;;;;;;;;;;;;;;2196898;67;1206;-21
2024/02/02 16:27:49;;;;;;;;;;;;;;;;;;2195580;59;1686;-21
2024/02/02 16:30:19;;;;;;;;;;;;;;;;;;2196795;59;1282;-21
2024/02/02 16:32:49;;;;;;;;;;;;;;;;;;2200716;59;1785;-21
2024/02/02 16:35:20;;;;;;;;;;;;;;;;;;2196244;59;1818;-21
2024/02/02 16:37:50;;;;;;;;;;;;;;;;;;2195899;59;1429;-21
2024/02/02 16:40:20;;;;;;;;;;;;;;;;;;2197706;67;2000;-21
2024/02/02 16:42:50;;;;;;;;;;;;;;;;;;2196269;67;1566;-21
2024/02/02 16:45:21;;;;;;;;;;;;;;;;;;2197000;59;1172;-21
2024/02/02 16:47:53;;;;;;;;;;;;;;;;;;2195998;67;1421;-21
2024/02/02 16:50:23;;;;;;;;;;;;;;;;;;2197071;59;1784;-21
2024/02/02 16:52:53;;;;;;;;;;;;;;;;;;2196549;59;1424;-21
2024/02/02 16:55:24;;;;;;;;;;;;;;;;;;2196875;67;1545;-21
2024/02/02 16:57:54;;;;;;;;;;;;;;;;;;2195718;59;1542;-21
2024/02/02 17:00:25;;;;;;;;;;;;;;;;;;2197297;59;1957;-21
2024/02/02 17:02:55;;;;;;;;;;;;;;;;;;2199175;67;1406;-21
2024/02/02 17:05:26;;;;;;;;;;;;;;;;;;2201260;67;1649;-21
2024/02/02 17:07:58;;;;;;;;;;;;;;;;;;2200104;59;1798;-21
2024/02/02 17:10:28;;;;;;;;;;;;;;;;;;2198018;59;2326;-21
2024/02/02 17:12:59;;;;;;;;;;;;;;;;;;2195296;59;2377;-21
2024/02/02 17:15:31;;;;;;;;;;;;;;;;;;2197449;59;1786;-21
2024/02/02 17:18:01;;;;;;;;;;;;;;;;;;2194515;59;2267;-21
2024/02/02 17:20:32;;;;;;;;;;;;;;;;;;2196748;59;2064;-21
2024/02/02 17:23:02;;;;;;;;;;;;;;;;;;2200691;59;2067;-21
2024/02/02 17:25:32;;;;;;;;;;;;;;;;;;2195634;59;2214;-21
2024/02/02 17:28:02;;;;;;;;;;;;;;;;;;2197899;59;1620;-21
2024/02/02 17:30:33;;;;;;;;;;;;;;;;;;2201837;67;1758;-21
2024/02/02 17:33:05;;;;;;;;;;;;;;;;;;2195551;59;2228;-21
2024/02/02 17:35:35;;;;;;;;;;;;;;;;;;2196697;67;1671;-21
2024/02/02 17:38:06;;;;;;;;;;;;;;;;;;2195329;59;1468;-21
2024/02/02 17:40:36;;;;;;;;;;;;;;;;;;2196024;67;1956;-21